createdAt,value
2023-03-05T00:00:16.578Z,2.00
2023-03-05T00:02:45.937Z,1.90
2023-03-05T00:05:14.301Z,2.00
2023-03-05T00:07:45.556Z,2.00
2023-03-05T00:10:13.728Z,2.00
2023-03-05T00:12:41.941Z,2.00
2023-03-05T00:15:11.406Z,1.90
2023-03-05T00:17:39.465Z,2.00
2023-03-05T00:20:11.106Z,1.90
2023-03-05T00:22:39.552Z,2.00
2023-03-05T00:25:09.077Z,2.00
2023-03-05T00:27:37.435Z,2.00
2023-03-05T00:30:10.501Z,2.00
2023-03-05T00:32:38.646Z,2.00
2023-03-05T00:35:07.329Z,2.00
2023-03-05T00:37:39.078Z,2.00
2023-03-05T00:40:09.256Z,2.00
2023-03-05T00:42:39.655Z,2.00
2023-03-05T00:45:12.538Z,2.00
2023-03-05T00:47:40.664Z,2.10
2023-03-05T00:50:10.100Z,2.00
2023-03-05T00:52:39.406Z,2.00
2023-03-05T00:55:08.148Z,2.00
2023-03-05T00:57:36.071Z,2.00
2023-03-05T01:00:05.210Z,2.00
2023-03-05T01:02:34.791Z,2.00
2023-03-05T01:05:03.040Z,2.00
2023-03-05T01:07:31.674Z,2.00
2023-03-05T01:10:02.934Z,2.00
2023-03-05T01:12:31.794Z,2.10
2023-03-05T01:15:00.167Z,2.10
2023-03-05T01:17:28.158Z,2.10
2023-03-05T01:19:56.327Z,2.10
2023-03-05T01:22:24.294Z,2.00
2023-03-05T01:24:52.323Z,2.00
2023-03-05T01:27:21.634Z,2.10
2023-03-05T01:29:50.136Z,2.00
2023-03-05T01:32:18.328Z,2.00
2023-03-05T01:34:47.196Z,2.00
2023-03-05T01:37:15.366Z,2.00
2023-03-05T01:39:43.269Z,2.00
2023-03-05T01:42:13.153Z,2.00
2023-03-05T01:45:05.271Z,2.00
2023-03-05T01:47:33.322Z,2.00
2023-03-05T01:50:01.777Z,2.00
2023-03-05T01:52:33.029Z,2.00
2023-03-05T01:55:05.024Z,2.00
2023-03-05T01:57:37.220Z,2.00
2023-03-05T02:00:10.921Z,2.00
2023-03-05T02:02:44.172Z,2.00
2023-03-05T02:05:14.231Z,2.00
2023-03-05T02:07:45.112Z,2.00
2023-03-05T02:10:19.397Z,2.00
2023-03-05T02:12:49.196Z,2.00
2023-03-05T02:15:19.645Z,2.10
2023-03-05T02:17:48.753Z,2.10
2023-03-05T02:20:20.334Z,2.00
2023-03-05T02:22:49.980Z,2.00
2023-03-05T02:25:21.392Z,2.00
2023-03-05T02:27:55.834Z,2.00
2023-03-05T02:30:24.993Z,2.00
2023-03-05T02:32:53.036Z,2.10
2023-03-05T02:35:22.643Z,2.10
2023-03-05T02:37:52.088Z,2.10
2023-03-05T02:40:20.393Z,2.10
2023-03-05T02:42:49.107Z,2.00
2023-03-05T02:45:18.314Z,2.00
2023-03-05T02:47:46.380Z,2.00
2023-03-05T02:50:16.267Z,2.10
2023-03-05T02:52:44.370Z,2.00
2023-03-05T02:55:17.382Z,2.00
2023-03-05T02:57:46.543Z,2.00
2023-03-05T03:00:16.248Z,2.00
2023-03-05T03:02:44.594Z,1.90
2023-03-05T03:05:13.105Z,2.00
2023-03-05T03:07:41.322Z,1.90
2023-03-05T03:10:12.163Z,2.00
2023-03-05T03:12:43.238Z,2.00
2023-03-05T03:15:13.461Z,2.00
2023-03-05T03:17:41.806Z,1.90
2023-03-05T03:20:14.876Z,2.00
2023-03-05T03:22:43.873Z,1.90
2023-03-05T03:25:14.808Z,1.90
2023-03-05T03:27:44.345Z,2.00
2023-03-05T03:30:13.833Z,1.90
2023-03-05T03:32:42.513Z,2.00
2023-03-05T03:35:12.231Z,1.90
2023-03-05T03:37:40.584Z,2.00
2023-03-05T03:40:10.216Z,2.00
2023-03-05T03:42:38.460Z,2.00
2023-03-05T03:45:10.294Z,1.90
2023-03-05T03:47:38.340Z,2.00
2023-03-05T03:50:07.291Z,2.00
2023-03-05T03:52:35.870Z,1.90
2023-03-05T03:55:04.987Z,1.90
2023-03-05T03:57:33.688Z,1.90
2023-03-05T04:00:01.920Z,1.90
2023-03-05T04:02:41.738Z,1.90
2023-03-05T04:05:10.717Z,1.90
2023-03-05T04:07:39.125Z,2.00
2023-03-05T04:10:08.128Z,2.00
2023-03-05T04:12:36.001Z,1.90
2023-03-05T04:15:08.161Z,2.00
2023-03-05T04:17:36.120Z,2.00
2023-03-05T04:20:07.613Z,1.90
2023-03-05T04:22:36.305Z,2.00
2023-03-05T04:25:09.676Z,2.00
2023-03-05T04:27:40.585Z,1.90
2023-03-05T04:30:11.264Z,1.90
2023-03-05T04:32:39.515Z,1.90
2023-03-05T04:35:09.533Z,1.90
2023-03-05T04:37:38.224Z,1.90
2023-03-05T04:40:08.356Z,1.90
2023-03-05T04:42:39.518Z,1.90
2023-03-05T04:45:10.043Z,1.90
2023-03-05T04:47:38.421Z,1.90
2023-03-05T04:50:10.798Z,1.90
2023-03-05T04:52:40.557Z,1.90
2023-03-05T04:55:09.930Z,2.00
2023-03-05T04:57:41.500Z,1.90
2023-03-05T05:00:14.833Z,1.90
2023-03-05T05:02:43.594Z,1.90
2023-03-05T05:05:15.306Z,1.90
2023-03-05T05:10:33.279Z,1.90
2023-03-05T05:13:01.208Z,1.90
2023-03-05T05:15:29.769Z,1.90
2023-03-05T05:17:57.811Z,1.90
2023-03-05T05:20:27.738Z,1.90
2023-03-05T05:22:55.804Z,1.90
2023-03-05T05:25:23.706Z,1.90
2023-03-05T05:27:52.249Z,1.90
2023-03-05T05:30:20.670Z,1.90
2023-03-05T05:32:49.101Z,1.90
2023-03-05T05:35:17.689Z,1.90
2023-03-05T05:37:47.436Z,1.90
2023-03-05T05:40:15.912Z,1.90
2023-03-05T05:42:44.573Z,2.00
2023-03-05T05:45:13.292Z,1.90
2023-03-05T05:47:41.692Z,1.90
2023-03-05T05:50:12.737Z,1.90
2023-03-05T05:52:43.583Z,1.90
2023-03-05T05:55:33.540Z,1.90
2023-03-05T05:58:01.600Z,1.90
2023-03-05T06:00:29.865Z,2.00
2023-03-05T06:02:58.163Z,1.90
2023-03-05T06:05:26.349Z,2.00
2023-03-05T06:07:54.879Z,2.00
2023-03-05T06:10:23.252Z,2.00
2023-03-05T06:12:53.229Z,2.00
2023-03-05T06:15:22.539Z,2.00
2023-03-05T06:17:50.417Z,2.00
2023-03-05T06:20:19.605Z,2.00
2023-03-05T06:22:47.612Z,2.00
2023-03-05T06:25:15.830Z,2.00
2023-03-05T06:27:44.346Z,2.00
2023-03-05T06:30:14.835Z,2.00
2023-03-05T06:32:43.113Z,2.10
2023-03-05T06:35:11.101Z,2.10
2023-03-05T06:37:39.499Z,2.10
2023-03-05T06:40:09.690Z,2.10
2023-03-05T06:42:37.767Z,2.10
2023-03-05T06:45:07.461Z,2.10
2023-03-05T06:47:36.888Z,2.10
2023-03-05T06:50:06.552Z,2.20
2023-03-05T06:52:35.911Z,2.20
2023-03-05T06:55:04.126Z,2.20
2023-03-05T06:57:34.388Z,2.20
2023-03-05T07:00:04.784Z,2.20
2023-03-05T07:02:33.609Z,2.30
2023-03-05T07:05:03.404Z,2.30
2023-03-05T07:07:31.418Z,2.30
2023-03-05T07:10:02.321Z,2.30
2023-03-05T07:12:30.655Z,2.30
2023-03-05T07:14:58.977Z,2.30
2023-03-05T07:17:26.883Z,2.40
2023-03-05T07:19:56.696Z,2.40
2023-03-05T07:22:26.101Z,2.50
2023-03-05T07:24:54.605Z,2.50
2023-03-05T07:27:25.435Z,2.60
2023-03-05T07:29:53.343Z,2.60
2023-03-05T07:32:21.409Z,2.70
2023-03-05T07:34:49.383Z,2.70
2023-03-05T07:37:17.693Z,2.70
2023-03-05T07:39:48.134Z,2.80
2023-03-05T07:42:16.148Z,2.80
2023-03-05T07:44:57.814Z,2.80
2023-03-05T07:47:26.229Z,2.80
2023-03-05T07:49:54.146Z,2.90
2023-03-05T07:52:22.428Z,2.90
2023-03-05T07:54:51.883Z,3.00
2023-03-05T07:57:19.981Z,3.00
2023-03-05T07:59:48.750Z,3.00
2023-03-05T08:02:16.688Z,3.00
2023-03-05T08:04:45.667Z,3.10
2023-03-05T08:07:15.765Z,3.10
2023-03-05T08:09:44.289Z,3.10
2023-03-05T08:12:13.534Z,3.20
2023-03-05T08:14:42.458Z,3.30
2023-03-05T08:17:11.617Z,3.30
2023-03-05T08:19:39.722Z,3.30
2023-03-05T08:22:07.962Z,3.30
2023-03-05T08:24:36.424Z,3.30
2023-03-05T08:27:04.514Z,3.40
2023-03-05T08:29:33.908Z,3.40
2023-03-05T08:32:02.344Z,3.50
2023-03-05T08:34:31.007Z,3.50
2023-03-05T08:36:59.371Z,3.40
2023-03-05T08:39:28.278Z,3.50
2023-03-05T08:41:56.429Z,3.50
2023-03-05T08:44:24.943Z,3.60
2023-03-05T08:47:15.052Z,3.70
2023-03-05T08:49:43.260Z,3.70
2023-03-05T08:52:11.309Z,3.70
2023-03-05T08:54:39.329Z,3.80
2023-03-05T08:57:07.423Z,3.80
2023-03-05T08:59:35.633Z,3.90
2023-03-05T09:02:04.961Z,3.90
2023-03-05T09:04:34.348Z,4.00
2023-03-05T09:07:02.301Z,4.00
2023-03-05T09:09:32.418Z,4.10
2023-03-05T09:12:01.302Z,4.10
2023-03-05T09:14:30.054Z,4.20
2023-03-05T09:16:58.632Z,4.20
2023-03-05T09:19:27.495Z,4.20
2023-03-05T09:21:57.298Z,4.20
2023-03-05T09:27:12.332Z,4.30
2023-03-05T09:29:42.912Z,4.30
2023-03-05T09:32:11.857Z,4.30
2023-03-05T09:34:39.914Z,4.40
2023-03-05T09:37:09.849Z,4.40
2023-03-05T09:39:57.599Z,4.40
2023-03-05T09:42:37.232Z,4.40
2023-03-05T09:45:19.340Z,4.30
2023-03-05T09:47:54.775Z,4.40
2023-03-05T09:50:36.365Z,4.40
2023-03-05T09:53:14.745Z,4.40
2023-03-05T09:55:46.707Z,4.40
2023-03-05T09:58:18.517Z,4.30
2023-03-05T10:00:53.628Z,4.20
2023-03-05T10:03:28.217Z,4.30
2023-03-05T10:06:07.436Z,4.30
2023-03-05T10:08:47.732Z,4.30
2023-03-05T10:11:35.109Z,4.30
2023-03-05T10:17:02.052Z,4.30
2023-03-05T10:19:49.064Z,4.20
2023-03-05T10:22:20.915Z,4.30
2023-03-05T10:25:04.435Z,4.30
2023-03-05T10:27:47.281Z,4.20
2023-03-05T10:30:32.587Z,4.20
2023-03-05T10:33:12.346Z,4.20
2023-03-05T10:36:07.246Z,4.20
2023-03-05T10:39:06.921Z,4.20
2023-03-05T10:41:44.146Z,4.30
2023-03-05T10:44:16.603Z,4.40
2023-03-05T10:46:47.718Z,4.40
2023-03-05T10:49:21.062Z,4.40
2023-03-05T10:51:54.031Z,4.40
2023-03-05T10:54:29.533Z,4.40
2023-03-05T10:57:18.555Z,4.40
2023-03-05T10:59:50.737Z,4.40
2023-03-05T11:02:19.730Z,4.40
2023-03-05T11:04:48.208Z,4.40
2023-03-05T11:07:38.714Z,4.50
2023-03-05T11:10:21.258Z,4.50
2023-03-05T11:12:50.969Z,4.60
2023-03-05T11:15:29.609Z,4.70
2023-03-05T11:18:21.240Z,4.60
2023-03-05T11:20:50.105Z,4.60
2023-03-05T11:23:20.668Z,4.60
2023-03-05T11:25:59.254Z,4.70
2023-03-05T11:28:34.088Z,4.80
2023-03-05T11:34:26.721Z,4.60
2023-03-05T11:37:04.602Z,4.60
2023-03-05T11:39:35.921Z,4.80
2023-03-05T11:42:07.389Z,4.90
2023-03-05T11:44:47.652Z,4.90
2023-03-05T11:47:25.009Z,5.00
2023-03-05T11:50:01.076Z,4.80
2023-03-05T11:52:32.323Z,4.90
2023-03-05T11:55:06.634Z,4.90
2023-03-05T11:57:42.692Z,5.00
2023-03-05T12:00:20.288Z,4.90
2023-03-05T12:02:53.845Z,4.90
2023-03-05T12:05:22.970Z,4.80
2023-03-05T12:07:54.498Z,4.80
2023-03-05T12:10:25.361Z,4.80
2023-03-05T12:13:00.670Z,4.70
2023-03-05T12:15:53.659Z,4.70
2023-03-05T12:18:36.953Z,4.60
2023-03-05T12:21:15.865Z,4.60
2023-03-05T12:23:50.354Z,4.60
2023-03-05T12:26:21.113Z,4.50
2023-03-05T12:28:58.324Z,4.40
2023-03-05T12:31:39.636Z,4.50
2023-03-05T12:34:48.732Z,4.50
2023-03-05T12:37:55.190Z,4.60
2023-03-05T12:40:28.665Z,4.50
2023-03-05T12:42:58.743Z,4.50
2023-03-05T12:45:48.089Z,4.50
2023-03-05T12:48:51.688Z,4.60
2023-03-05T12:51:32.396Z,4.60
2023-03-05T12:54:25.652Z,4.60
2023-03-05T12:56:56.112Z,4.70
2023-03-05T12:59:29.796Z,4.80
2023-03-05T13:02:04.029Z,4.80
2023-03-05T13:04:46.184Z,4.90
2023-03-05T13:07:18.245Z,4.80
2023-03-05T13:09:55.775Z,4.90
2023-03-05T13:12:26.875Z,4.70
2023-03-05T13:15:03.432Z,4.60
2023-03-05T13:17:44.375Z,4.60
2023-03-05T13:20:38.322Z,4.60
2023-03-05T13:23:26.306Z,4.60
2023-03-05T13:26:05.553Z,4.50
2023-03-05T13:28:37.440Z,4.60
2023-03-05T13:31:14.615Z,4.50
2023-03-05T13:33:55.082Z,4.50
2023-03-05T13:36:29.540Z,4.50
2023-03-05T13:39:01.934Z,4.50
2023-03-05T13:41:31.269Z,4.50
2023-03-05T13:44:07.348Z,4.50
2023-03-05T13:46:43.239Z,4.50
2023-03-05T13:49:23.204Z,4.50
2023-03-05T13:51:56.692Z,4.50
2023-03-05T13:54:31.981Z,4.50
2023-03-05T13:57:13.150Z,4.50
2023-03-05T13:59:54.505Z,4.50
2023-03-05T14:02:52.958Z,4.50
2023-03-05T14:05:30.759Z,4.50
2023-03-05T14:08:01.451Z,4.60
2023-03-05T14:10:34.275Z,4.60
2023-03-05T14:16:17.434Z,4.70
2023-03-05T14:19:02.109Z,4.60
2023-03-05T14:21:50.172Z,4.50
2023-03-05T14:24:26.617Z,4.60
2023-03-05T14:26:58.867Z,4.60
2023-03-05T14:29:32.887Z,4.50
2023-03-05T14:32:06.730Z,4.50
2023-03-05T14:34:39.112Z,4.50
2023-03-05T14:37:19.489Z,4.50
2023-03-05T14:39:53.824Z,4.50
2023-03-05T14:42:36.959Z,4.50
2023-03-05T14:45:14.104Z,4.40
2023-03-05T14:47:42.568Z,4.30
2023-03-05T14:50:12.920Z,4.40
2023-03-05T14:52:41.885Z,4.30
2023-03-05T14:55:36.101Z,4.30
2023-03-05T14:58:15.133Z,4.30
2023-03-05T15:00:46.586Z,4.20
2023-03-05T15:03:17.923Z,4.20
2023-03-05T15:05:49.767Z,4.20
2023-03-05T15:08:24.773Z,4.20
2023-03-05T15:10:56.233Z,4.20
2023-03-05T15:13:25.466Z,4.20
2023-03-05T15:15:55.135Z,4.10
2023-03-05T15:18:27.139Z,4.10
2023-03-05T15:20:57.402Z,4.10
2023-03-05T15:23:27.853Z,4.10
2023-03-05T15:25:57.264Z,4.10
2023-03-05T15:28:26.291Z,4.00
2023-03-05T15:30:55.131Z,4.00
2023-03-05T15:33:23.953Z,4.00
2023-03-05T15:35:52.627Z,4.00
2023-03-05T15:38:21.192Z,4.00
2023-03-05T15:40:49.558Z,4.00
2023-03-05T15:46:28.232Z,4.00
2023-03-05T15:48:56.179Z,3.90
2023-03-05T15:51:24.262Z,3.90
2023-03-05T15:54:14.800Z,3.90
2023-03-05T15:56:45.231Z,3.90
2023-03-05T15:59:14.967Z,3.90
2023-03-05T16:01:48.559Z,3.90
2023-03-05T16:04:17.360Z,3.90
2023-03-05T16:06:47.283Z,3.90
2023-03-05T16:09:17.270Z,3.90
2023-03-05T16:11:48.012Z,3.80
2023-03-05T16:14:20.665Z,3.80
2023-03-05T16:16:49.185Z,3.80
2023-03-05T16:19:19.975Z,3.80
2023-03-05T16:21:48.024Z,3.80
2023-03-05T16:24:16.643Z,3.80
2023-03-05T16:26:44.724Z,3.80
2023-03-05T16:29:12.783Z,3.80
2023-03-05T16:31:46.777Z,3.80
2023-03-05T16:34:17.483Z,3.70
2023-03-05T16:36:48.655Z,3.70
2023-03-05T16:39:16.960Z,3.70
2023-03-05T16:41:48.841Z,3.70
2023-03-05T16:44:17.534Z,3.70
2023-03-05T16:46:49.292Z,3.70
2023-03-05T16:49:17.970Z,3.60
2023-03-05T16:51:46.507Z,3.60
2023-03-05T16:54:14.609Z,3.60
2023-03-05T16:56:42.661Z,3.60
2023-03-05T16:59:12.020Z,3.60
2023-03-05T17:01:40.085Z,3.50
2023-03-05T17:04:09.535Z,3.50
2023-03-05T17:06:37.643Z,3.50
2023-03-05T17:09:07.367Z,3.50
2023-03-05T17:11:35.328Z,3.50
2023-03-05T17:14:04.235Z,3.50
2023-03-05T17:16:32.504Z,3.40
2023-03-05T17:19:00.493Z,3.40
2023-03-05T17:21:29.808Z,3.40
2023-03-05T17:23:57.826Z,3.40
2023-03-05T17:26:25.979Z,3.40
2023-03-05T17:28:54.729Z,3.30
2023-03-05T17:31:23.924Z,3.30
2023-03-05T17:33:52.511Z,3.30
2023-03-05T17:36:25.145Z,3.30
2023-03-05T17:38:55.176Z,3.30
2023-03-05T17:41:23.947Z,3.30
2023-03-05T17:43:52.471Z,3.30
2023-03-05T17:46:20.882Z,3.30
2023-03-05T17:48:49.754Z,3.20
2023-03-05T17:51:19.182Z,3.20
2023-03-05T17:53:47.606Z,3.20
2023-03-05T17:56:20.452Z,3.20
2023-03-05T17:58:48.712Z,3.20
2023-03-05T18:01:25.881Z,3.10
2023-03-05T18:03:56.611Z,3.20
2023-03-05T18:06:24.746Z,3.10
2023-03-05T18:08:52.674Z,3.10
2023-03-05T18:11:22.541Z,3.10
2023-03-05T18:13:51.145Z,3.10
2023-03-05T18:16:20.151Z,3.10
2023-03-05T18:18:48.263Z,3.10
2023-03-05T18:21:20.908Z,3.10
2023-03-05T18:24:09.757Z,3.00
2023-03-05T18:26:39.849Z,3.00
2023-03-05T18:29:10.768Z,3.00
2023-03-05T18:31:38.796Z,3.00
2023-03-05T18:34:07.212Z,3.00
2023-03-05T18:36:35.519Z,3.00
2023-03-05T18:39:04.752Z,2.90
2023-03-05T18:41:32.931Z,2.90
2023-03-05T18:44:04.434Z,3.00
2023-03-05T18:46:54.716Z,2.90
2023-03-05T18:49:23.726Z,2.90
2023-03-05T18:51:51.640Z,2.90
2023-03-05T18:54:19.840Z,2.90
2023-03-05T18:56:48.865Z,2.90
2023-03-05T18:59:20.817Z,2.90
2023-03-05T19:01:49.826Z,2.90
2023-03-05T19:04:17.903Z,2.80
2023-03-05T19:06:46.320Z,2.80
2023-03-05T19:09:20.919Z,2.80
2023-03-05T19:11:48.905Z,2.80
2023-03-05T19:14:18.412Z,2.80
2023-03-05T19:16:47.662Z,2.80
2023-03-05T19:19:16.607Z,2.80
2023-03-05T19:21:46.967Z,2.80
2023-03-05T19:24:15.739Z,2.80
2023-03-05T19:26:44.974Z,2.80
2023-03-05T19:29:13.579Z,2.80
2023-03-05T19:31:43.063Z,2.80
2023-03-05T19:34:32.107Z,2.80
2023-03-05T19:37:00.100Z,2.80
2023-03-05T19:39:28.143Z,2.80
2023-03-05T19:41:59.842Z,2.80
2023-03-05T19:44:27.895Z,2.80
2023-03-05T19:46:57.481Z,2.80
2023-03-05T19:49:25.755Z,2.80
2023-03-05T19:51:53.774Z,2.70
2023-03-05T19:54:23.191Z,2.80
2023-03-05T19:56:54.907Z,2.70
2023-03-05T19:59:25.762Z,2.70
2023-03-05T20:01:57.963Z,2.70
2023-03-05T20:04:29.057Z,2.70
2023-03-05T20:06:57.405Z,2.70
2023-03-05T20:09:25.412Z,2.70
2023-03-05T20:11:53.404Z,2.70
2023-03-05T20:14:22.398Z,2.60
2023-03-05T20:16:50.501Z,2.60
2023-03-05T20:19:20.226Z,2.60
2023-03-05T20:21:50.521Z,2.60
2023-03-05T20:24:19.920Z,2.60
2023-03-05T20:26:48.947Z,2.60
2023-03-05T20:29:18.888Z,2.60
2023-03-05T20:31:49.924Z,2.50
2023-03-05T20:34:22.115Z,2.60
2023-03-05T20:36:51.841Z,2.60
2023-03-05T20:39:20.228Z,2.60
2023-03-05T20:41:51.863Z,2.50
2023-03-05T20:44:19.783Z,2.50
2023-03-05T20:46:59.648Z,2.50
2023-03-05T20:49:27.959Z,2.50
2023-03-05T20:51:57.531Z,2.50
2023-03-05T20:54:27.256Z,2.50
2023-03-05T20:56:55.365Z,2.50
2023-03-05T20:59:24.703Z,2.50
2023-03-05T21:01:53.109Z,2.40
2023-03-05T21:04:22.173Z,2.50
2023-03-05T21:06:54.051Z,2.50
2023-03-05T21:09:24.799Z,2.50
2023-03-05T21:11:52.701Z,2.40
2023-03-05T21:14:21.849Z,2.40
2023-03-05T21:17:10.635Z,2.40
2023-03-05T21:19:39.998Z,2.40
2023-03-05T21:22:08.213Z,2.40
2023-03-05T21:24:52.209Z,2.40
2023-03-05T21:27:23.159Z,2.40
2023-03-05T21:30:13.171Z,2.40
2023-03-05T21:32:42.154Z,2.40
2023-03-05T21:35:15.978Z,2.40
2023-03-05T21:37:45.730Z,2.40
2023-03-05T21:40:18.491Z,2.50
2023-03-05T21:42:47.833Z,2.40
2023-03-05T21:45:19.995Z,2.50
2023-03-05T21:47:51.987Z,2.50
2023-03-05T21:50:21.735Z,2.50
2023-03-05T21:52:53.064Z,2.50
2023-03-05T21:55:30.832Z,2.50
2023-03-05T21:57:59.319Z,2.40
2023-03-05T22:00:27.908Z,2.40
2023-03-05T22:02:56.196Z,2.40
2023-03-05T22:05:24.642Z,2.40
2023-03-05T22:07:52.517Z,2.40
2023-03-05T22:10:22.605Z,2.40
2023-03-05T22:12:56.752Z,2.50
2023-03-05T22:15:26.797Z,2.50
2023-03-05T22:17:54.748Z,2.50
2023-03-05T22:20:24.100Z,2.50
2023-03-05T22:22:52.966Z,2.50
2023-03-05T22:25:22.293Z,2.50
2023-03-05T22:27:50.261Z,2.50
2023-03-05T22:30:18.828Z,2.50
2023-03-05T22:32:48.641Z,2.50
2023-03-05T22:35:17.839Z,2.50
2023-03-05T22:37:47.034Z,2.50
2023-03-05T22:40:17.457Z,2.40
2023-03-05T22:42:48.852Z,2.40
2023-03-05T22:45:19.538Z,2.50
2023-03-05T22:48:09.817Z,2.50
2023-03-05T22:50:37.752Z,2.50
2023-03-05T22:53:06.441Z,2.50
2023-03-05T22:55:34.669Z,2.40
2023-03-05T22:58:04.805Z,2.50
2023-03-05T23:00:32.877Z,2.50
2023-03-05T23:03:00.962Z,2.40
2023-03-05T23:05:28.941Z,2.40
2023-03-05T23:07:56.862Z,2.40
2023-03-05T23:10:28.596Z,2.40
2023-03-05T23:12:58.906Z,2.40
2023-03-05T23:15:31.142Z,2.40
2023-03-05T23:17:59.634Z,2.40
2023-03-05T23:20:30.461Z,2.40
2023-03-05T23:22:59.451Z,2.40
2023-03-05T23:25:30.150Z,2.40
2023-03-05T23:27:59.584Z,2.40
2023-03-05T23:30:30.180Z,2.40
2023-03-05T23:32:59.596Z,2.40
2023-03-05T23:35:31.867Z,2.40
2023-03-05T23:38:01.798Z,2.40
2023-03-05T23:40:31.894Z,2.40
2023-03-05T23:43:03.615Z,2.40
2023-03-05T23:45:33.766Z,2.40
2023-03-05T23:48:01.742Z,2.40
2023-03-05T23:50:33.106Z,2.40
2023-03-05T23:53:02.878Z,2.40
2023-03-05T23:55:34.189Z,2.40
2023-03-05T23:58:03.175Z,2.40
